Time;durP1;ratioP1;P1;durP2;ratioP2;P2;SDS_P1;SDS_P2;PMS_P1;PMS_P2;Temp;Humidity;BMP_temperature;BMP_pressure;BME280_temperature;BME280_humidity;BME280_pressure;Samples;Min_cycle;Max_cycle;Signal;HPM_P1;HPM_P2
2023/07/07 00:01:27;;;;;;;4.43;1.70;;;12.00;99.90;;;;;;5075604;28;19920;-60
2023/07/07 00:03:53;;;;;;;;;;;12.00;99.90;;;;;;5087598;28;20056;-58
2023/07/07 00:06:21;;;;;;;3.40;1.73;;;12.00;99.90;;;;;;5086055;28;19976;-54
2023/07/07 00:08:47;;;;;;;3.30;1.45;;;11.90;99.90;;;;;;5080808;28;20075;-56
2023/07/07 00:11:12;;;;;;;;;;;11.80;99.90;;;;;;5084327;28;20072;-62
2023/07/07 00:13:38;;;;;;;5.05;1.83;;;11.90;99.90;;;;;;5081555;28;19922;-59
2023/07/07 00:16:04;;;;;;;;;;;11.90;99.90;;;;;;5083378;28;20032;-59
2023/07/07 00:18:29;;;;;;;3.63;1.92;;;11.90;99.90;;;;;;5069407;28;20011;-59
2023/07/07 00:20:56;;;;;;;;;;;11.80;99.90;;;;;;5073137;28;20024;-59
2023/07/07 00:23:22;;;;;;;3.63;1.60;;;11.80;99.90;;;;;;5067809;28;19924;-57
2023/07/07 00:26:04;;;;;;;;;;;11.90;99.90;;;;;;5072503;28;20117;-60
2023/07/07 00:28:31;;;;;;;3.90;1.60;;;11.80;99.90;;;;;;5067288;28;20031;-53
2023/07/07 00:30:57;;;;;;;6.20;1.83;;;11.80;99.90;;;;;;5074344;28;20611;-51
2023/07/07 00:33:23;;;;;;;;;;;11.80;99.90;;;;;;5066431;28;20158;-57
2023/07/07 00:35:49;;;;;;;3.80;1.65;;;11.80;99.90;;;;;;5072463;28;19924;-56
2023/07/07 00:38:16;;;;;;;6.50;1.98;;;11.80;99.90;;;;;;5064458;28;20544;-57
2023/07/07 00:40:42;;;;;;;5.00;1.92;;;11.70;99.90;;;;;;5073426;28;20036;-58
2023/07/07 00:43:16;;;;;;;3.80;1.73;;;11.60;99.90;;;;;;5067755;28;20047;-56
2023/07/07 00:45:42;;;;;;;14.07;2.67;;;11.60;99.90;;;;;;5063647;28;20492;-56
2023/07/07 00:48:16;;;;;;;2.60;1.75;;;11.60;99.90;;;;;;5067784;28;20479;-59
2023/07/07 00:51:10;;;;;;;3.20;1.90;;;11.60;99.90;;;;;;5081549;28;20141;-57
2023/07/07 00:53:38;;;;;;;3.10;1.95;;;11.60;99.90;;;;;;5079783;28;20118;-56
2023/07/07 00:56:08;;;;;;;4.97;1.80;;;11.50;99.90;;;;;;5073264;28;20055;-59
2023/07/07 00:58:36;;;;;;;2.80;1.77;;;11.50;99.90;;;;;;5066678;28;20048;-56
2023/07/07 01:01:12;;;;;;;2.40;1.85;;;11.60;99.90;;;;;;5068902;28;20040;-58
2023/07/07 01:03:48;;;;;;;2.60;1.60;;;11.50;99.90;;;;;;5065412;28;20044;-61
2023/07/07 01:06:17;;;;;;;5.20;1.92;;;11.50;99.90;;;;;;5071014;28;20177;-56
2023/07/07 01:08:45;;;;;;;3.65;1.80;;;11.50;99.90;;;;;;5062515;28;20052;-56
2023/07/07 01:11:11;;;;;;;4.30;1.70;;;11.40;99.90;;;;;;5071201;28;20032;-53
2023/07/07 01:13:36;;;;;;;;;;;11.40;99.90;;;;;;5071662;28;20454;-56
2023/07/07 01:16:29;;;;;;;4.22;1.90;;;11.40;99.90;;;;;;5066455;28;19977;-59
2023/07/07 01:19:04;;;;;;;5.43;1.77;;;11.40;99.90;;;;;;5062185;28;20082;-59
2023/07/07 01:21:37;;;;;;;5.57;1.70;;;11.40;99.90;;;;;;5068729;28;20045;-56
2023/07/07 01:24:06;;;;;;;3.25;1.70;;;11.40;99.90;;;;;;5062148;28;20031;-55
2023/07/07 01:27:20;;;;;;;3.42;1.52;;;11.40;99.90;;;;;;5069595;28;20048;-56
2023/07/07 01:30:00;;;;;;;2.80;1.83;;;11.40;99.90;;;;;;4981154;28;20050;-57
2023/07/07 01:32:28;;;;;;;3.35;1.80;;;11.40;99.90;;;;;;5063316;28;20044;-57
2023/07/07 01:34:58;;;;;;;4.55;1.50;;;11.30;99.90;;;;;;5078586;28;20043;-54
2023/07/07 01:37:23;;;;;;;2.88;1.83;;;11.30;99.90;;;;;;5064205;28;20032;-57
2023/07/07 01:39:50;;;;;;;;;;;11.30;99.90;;;;;;5074397;28;20073;-59
2023/07/07 01:42:33;;;;;;;5.45;2.10;;;11.30;99.90;;;;;;5059674;28;19920;-61
2023/07/07 01:45:01;;;;;;;3.70;1.77;;;11.30;99.90;;;;;;5072833;28;20048;-60
2023/07/07 01:47:34;;;;;;;3.13;1.50;;;11.20;99.90;;;;;;5063800;28;20041;-58
2023/07/07 01:50:09;;;;;;;4.70;1.58;;;11.20;99.90;;;;;;5069756;28;20032;-59
2023/07/07 01:52:49;;;;;;;4.68;1.63;;;11.20;99.90;;;;;;5058399;28;20158;-57
2023/07/07 01:55:23;;;;;;;5.47;1.52;;;11.20;99.90;;;;;;5068174;28;20043;-57
2023/07/07 01:57:53;;;;;;;3.17;1.40;;;11.20;99.90;;;;;;5064972;28;20051;-59
2023/07/07 02:00:20;;;;;;;4.43;1.40;;;11.30;99.90;;;;;;5069602;28;20036;-59
2023/07/07 02:02:46;;;;;;;3.78;1.92;;;11.20;99.90;;;;;;5065400;28;20096;-59
2023/07/07 02:05:12;;;;;;;2.60;1.70;;;11.20;99.90;;;;;;5062864;28;20036;-59
2023/07/07 02:07:38;;;;;;;2.85;2.00;;;11.10;99.90;;;;;;5064209;28;20047;-58
2023/07/07 02:10:04;;;;;;;;;;;11.20;99.90;;;;;;5074017;28;20036;-57
2023/07/07 02:12:29;;;;;;;3.50;1.80;;;11.10;99.90;;;;;;5062733;28;20282;-60
2023/07/07 02:14:55;;;;;;;;;;;11.20;99.90;;;;;;5069913;28;20034;-56
2023/07/07 02:17:20;;;;;;;2.70;1.50;;;11.10;99.90;;;;;;5062034;28;20003;-55
2023/07/07 02:19:46;;;;;;;;;;;11.10;99.90;;;;;;5068788;28;20498;-57
2023/07/07 02:22:12;;;;;;;2.50;1.60;;;11.10;99.90;;;;;;5062188;28;19966;-56
2023/07/07 02:24:37;;;;;;;5.30;2.10;;;11.10;99.90;;;;;;5069286;28;20040;-58
2023/07/07 02:27:03;;;;;;;;;;;11.00;99.90;;;;;;5065041;28;20050;-59
2023/07/07 02:29:29;;;;;;;3.90;1.92;;;11.00;99.90;;;;;;5065752;28;19966;-58
2023/07/07 02:31:54;;;;;;;;;;;11.00;99.90;;;;;;5058768;28;20062;-60
2023/07/07 02:34:20;;;;;;;2.70;1.80;;;11.10;99.90;;;;;;5062871;28;19921;-56
2023/07/07 02:36:45;;;;;;;2.65;1.60;;;11.00;99.90;;;;;;5067335;28;20044;-60
2023/07/07 02:39:11;;;;;;;;;;;11.00;99.90;;;;;;5066055;28;20037;-58
2023/07/07 02:41:37;;;;;;;3.67;1.70;;;11.00;99.90;;;;;;5061498;28;19969;-60
2023/07/07 02:44:02;;;;;;;2.72;1.73;;;11.00;99.90;;;;;;5070232;28;20132;-59
2023/07/07 02:46:28;;;;;;;;;;;10.90;99.90;;;;;;5067666;28;20063;-61
2023/07/07 02:48:53;;;;;;;3.17;1.65;;;10.90;99.90;;;;;;5071748;28;20341;-54
2023/07/07 02:51:19;;;;;;;;;;;10.90;99.90;;;;;;5068019;28;20147;-57
2023/07/07 02:53:44;;;;;;;3.03;1.63;;;10.90;99.90;;;;;;5067302;28;19924;-51
2023/07/07 02:56:10;;;;;;;;;;;10.90;99.90;;;;;;5069936;28;20037;-55
2023/07/07 02:58:35;;;;;;;9.00;1.52;;;10.90;99.90;;;;;;5063588;28;20028;-58
2023/07/07 03:01:10;;;;;;;;;;;10.90;99.90;;;;;;5067128;28;20058;-58
2023/07/07 03:03:41;;;;;;;2.00;1.65;;;10.90;99.90;;;;;;5060378;28;19970;-59
2023/07/07 03:06:09;;;;;;;2.92;1.80;;;10.90;99.90;;;;;;5066374;28;20125;-60
2023/07/07 03:08:36;;;;;;;4.68;1.75;;;10.80;99.90;;;;;;5064686;28;20039;-59
2023/07/07 03:11:10;;;;;;;5.47;1.65;;;10.80;99.90;;;;;;5061979;28;20443;-54
2023/07/07 03:13:36;;;;;;;6.60;1.83;;;10.80;99.90;;;;;;5058203;28;20032;-58
2023/07/07 03:16:32;;;;;;;3.83;1.70;;;10.80;99.90;;;;;;5067824;28;20047;-58
2023/07/07 03:19:04;;;;;;;6.10;2.22;;;10.80;99.90;;;;;;5063307;28;20567;-61
2023/07/07 03:21:33;;;;;;;3.05;1.67;;;10.70;99.90;;;;;;5071912;28;20036;-60
2023/07/07 03:23:59;;;;;;;4.18;1.70;;;10.70;99.90;;;;;;5054171;28;20043;-55
2023/07/07 03:26:25;;;;;;;;;;;10.70;99.90;;;;;;5059007;28;20045;-58
2023/07/07 03:28:51;;;;;;;3.78;1.55;;;10.70;99.90;;;;;;5055542;28;19960;-56
2023/07/07 03:31:26;;;;;;;4.72;1.50;;;10.70;99.90;;;;;;5049283;28;20044;-57
2023/07/07 03:33:55;;;;;;;7.93;1.92;;;10.70;99.90;;;;;;5057386;28;20610;-60
2023/07/07 03:36:23;;;;;;;3.83;1.60;;;10.70;99.90;;;;;;5051301;28;20796;-55
2023/07/07 03:38:49;;;;;;;2.97;1.52;;;10.70;99.90;;;;;;5059881;28;20036;-62
2023/07/07 03:41:17;;;;;;;;;;;10.70;99.90;;;;;;5051450;28;20044;-52
2023/07/07 03:43:44;;;;;;;4.20;1.40;;;10.70;99.90;;;;;;5059382;28;19920;-52
2023/07/07 03:46:11;;;;;;;2.92;1.30;;;10.70;99.90;;;;;;5057835;28;20075;-57
2023/07/07 03:48:37;;;;;;;2.25;1.40;;;10.80;99.90;;;;;;5058775;28;20044;-60
2023/07/07 03:51:03;;;;;;;;;;;11.00;99.90;;;;;;5054204;28;20046;-56
2023/07/07 03:53:30;;;;;;;2.00;1.40;;;11.10;99.90;;;;;;5061430;28;20108;-55
2023/07/07 03:55:56;;;;;;;5.47;1.30;;;11.20;99.90;;;;;;5058966;28;20036;-60
2023/07/07 03:58:23;;;;;;;;;;;11.20;99.90;;;;;;5060830;28;20051;-62
2023/07/07 04:00:49;;;;;;;5.40;1.52;;;11.30;99.90;;;;;;5063188;28;20302;-52
2023/07/07 04:03:15;;;;;;;;;;;11.40;99.90;;;;;;5062101;28;20040;-59
2023/07/07 04:05:48;;;;;;;5.67;1.23;;;11.40;99.90;;;;;;5063164;28;21087;-54
2023/07/07 04:08:22;;;;;;;3.58;1.38;;;11.40;99.90;;;;;;5062035;28;20044;-59
2023/07/07 04:10:59;;;;;;;1.70;1.25;;;11.50;99.90;;;;;;5058107;28;20039;-55
2023/07/07 04:13:25;;;;;;;2.88;1.35;;;11.60;99.90;;;;;;5063883;28;20036;-56
2023/07/07 04:16:24;;;;;;;2.97;1.40;;;11.60;99.90;;;;;;5055043;28;20063;-56
2023/07/07 04:18:53;;;;;;;2.55;1.45;;;11.70;99.90;;;;;;5038506;28;20084;-58
2023/07/07 04:21:21;;;;;;;2.92;1.55;;;11.80;99.90;;;;;;5060319;28;20032;-60
2023/07/07 04:23:49;;;;;;;2.53;1.80;;;11.90;99.90;;;;;;5062519;28;20051;-56
2023/07/07 04:26:16;;;;;;;3.25;1.33;;;12.00;99.90;;;;;;5055512;28;20103;-59
2023/07/07 04:28:42;;;;;;;2.85;1.45;;;12.00;99.90;;;;;;5062559;28;20040;-53
2023/07/07 04:31:09;;;;;;;;;;;12.10;99.90;;;;;;5060617;28;20059;-58
2023/07/07 04:33:36;;;;;;;4.60;1.10;;;12.00;99.90;;;;;;5065677;28;19970;-57
2023/07/07 04:36:04;;;;;;;4.35;1.52;;;12.20;99.90;;;;;;5062708;28;20766;-57
2023/07/07 04:38:31;;;;;;;1.75;1.20;;;12.70;99.90;;;;;;5054801;28;20044;-55
2023/07/07 04:41:09;;;;;;;2.58;1.25;;;13.50;99.90;;;;;;5067862;28;20079;-58
2023/07/07 04:43:41;;;;;;;5.15;1.45;;;13.50;99.90;;;;;;5056543;28;20411;-56
2023/07/07 04:46:08;;;;;;;2.25;1.30;;;13.40;99.90;;;;;;5065267;28;20131;-59
2023/07/07 04:48:34;;;;;;;3.08;1.17;;;13.20;99.90;;;;;;5063871;28;20040;-58
2023/07/07 04:51:02;;;;;;;;;;;13.10;99.90;;;;;;5066188;28;20377;-56
2023/07/07 04:53:30;;;;;;;2.22;1.42;;;13.00;99.90;;;;;;5056072;28;19923;-58
2023/07/07 04:55:56;;;;;;;2.00;1.20;;;13.00;99.90;;;;;;5066745;28;20055;-60
2023/07/07 04:58:25;;;;;;;2.28;1.38;;;13.60;99.90;;;;;;5063828;28;20045;-57
2023/07/07 05:00:52;;;;;;;3.53;1.58;;;13.80;99.90;;;;;;5063229;28;20647;-57
2023/07/07 05:03:18;;;;;;;3.53;1.80;;;13.90;99.90;;;;;;5059635;28;20044;-60
2023/07/07 05:05:43;;;;;;;;;;;13.90;99.90;;;;;;5066752;28;20060;-59
2023/07/07 05:08:08;;;;;;;3.75;1.58;;;13.80;99.90;;;;;;5059917;28;19927;-60
2023/07/07 05:10:34;;;;;;;;;;;13.80;99.90;;;;;;5067047;28;20648;-58
2023/07/07 05:13:00;;;;;;;3.90;1.35;;;13.90;99.90;;;;;;5062281;28;20442;-59
2023/07/07 05:15:25;;;;;;;;;;;13.90;99.90;;;;;;5059338;28;20032;-60
2023/07/07 05:17:51;;;;;;;4.78;1.50;;;14.00;99.90;;;;;;5062931;28;19920;-54
2023/07/07 05:20:17;;;;;;;;;;;14.10;99.90;;;;;;5068501;28;20410;-60
2023/07/07 05:22:43;;;;;;;3.42;1.60;;;14.20;99.90;;;;;;5062219;28;19927;-50
2023/07/07 05:25:08;;;;;;;;;;;14.10;99.90;;;;;;5067836;28;20085;-61
2023/07/07 05:27:34;;;;;;;2.00;1.25;;;14.30;99.90;;;;;;5060907;28;19920;-55
2023/07/07 05:29:59;;;;;;;3.20;1.48;;;14.40;99.90;;;;;;5059952;28;20131;-59
2023/07/07 05:32:25;;;;;;;8.32;1.60;;;14.50;99.90;;;;;;5052983;28;20037;-60
2023/07/07 05:34:50;;;;;;;;;;;14.80;99.90;;;;;;5067190;28;20498;-56
2023/07/07 05:37:16;;;;;;;2.80;1.10;;;15.10;99.90;;;;;;5060849;28;20700;-59
2023/07/07 05:39:41;;;;;;;;;;;15.60;99.90;;;;;;5068238;28;20514;-57
2023/07/07 05:42:07;;;;;;;2.85;1.45;;;16.10;99.90;;;;;;5063233;28;19927;-59
2023/07/07 05:44:33;;;;;;;;;;;16.10;99.90;;;;;;5063053;28;20037;-58
2023/07/07 05:46:58;;;;;;;3.08;1.27;;;16.00;99.90;;;;;;5053271;28;19931;-57
2023/07/07 05:49:24;;;;;;;;;;;16.00;99.90;;;;;;5064898;28;20120;-60
2023/07/07 05:51:49;;;;;;;4.88;1.50;;;16.10;99.90;;;;;;5065026;28;19936;-59
2023/07/07 05:54:15;;;;;;;;;;;16.40;99.90;;;;;;5062453;28;20044;-54
2023/07/07 05:56:40;;;;;;;2.75;1.92;;;16.30;99.90;;;;;;5067782;28;19928;-56
2023/07/07 05:59:06;;;;;;;;;;;16.30;99.90;;;;;;5061261;28;20134;-57
2023/07/07 06:01:33;;;;;;;4.05;1.67;;;16.30;99.90;;;;;;5057858;28;19942;-58
2023/07/07 06:03:59;;;;;;;7.57;1.65;;;16.20;99.90;;;;;;5071077;28;20260;-54
2023/07/07 06:06:24;;;;;;;;;;;16.30;99.90;;;;;;5067795;28;20702;-58
2023/07/07 06:08:50;;;;;;;2.65;1.42;;;16.40;99.90;;;;;;5063765;28;19916;-58
2023/07/07 06:11:16;;;;;;;;;;;16.50;99.90;;;;;;5066308;28;20040;-56
2023/07/07 06:13:41;;;;;;;6.03;1.55;;;16.50;99.90;;;;;;5070281;28;20384;-61
2023/07/07 06:16:07;;;;;;;;;;;16.60;99.90;;;;;;5057387;28;20497;-58
2023/07/07 06:18:33;;;;;;;6.20;1.42;;;16.80;99.90;;;;;;5065789;28;19920;-60
2023/07/07 06:21:02;;;;;;;3.45;1.50;;;17.00;99.90;;;;;;5067167;28;20097;-55
2023/07/07 06:23:28;;;;;;;4.22;1.48;;;17.70;99.90;;;;;;5063823;28;20523;-61
2023/07/07 06:25:55;;;;;;;4.72;1.58;;;18.30;99.90;;;;;;5065301;28;20056;-59
2023/07/07 06:28:20;;;;;;;2.35;1.38;;;18.20;99.90;;;;;;5065911;28;20036;-58
2023/07/07 06:30:47;;;;;;;;;;;18.20;99.90;;;;;;5066351;28;20047;-58
2023/07/07 06:33:13;;;;;;;;;;;18.20;99.90;;;;;;5062019;28;19920;-58
2023/07/07 06:35:39;;;;;;;4.95;1.30;;;18.20;99.90;;;;;;5071974;28;19920;-57
2023/07/07 06:38:05;;;;;;;;;;;18.20;99.90;;;;;;5066398;28;20368;-58
2023/07/07 06:40:30;;;;;;;3.20;1.25;;;18.50;99.90;;;;;;5066989;28;19920;-57
2023/07/07 06:42:58;;;;;;;;;;;18.70;99.90;;;;;;5063907;28;20040;-58
2023/07/07 06:45:23;;;;;;;2.42;1.25;;;18.90;99.90;;;;;;5065834;28;19920;-58
2023/07/07 06:47:49;;;;;;;;;;;19.10;99.90;;;;;;5063173;28;20476;-59
2023/07/07 06:50:41;;;;;;;3.50;1.38;;;19.40;99.90;;;;;;5070079;28;19998;-61
2023/07/07 06:53:10;;;;;;;2.35;1.38;;;19.90;96.20;;;;;;5061433;28;20269;-58
2023/07/07 06:55:36;;;;;;;3.90;1.30;;;20.50;96.00;;;;;;5069405;28;20080;-53
2023/07/07 06:58:02;;;;;;;1.75;1.00;;;21.40;94.20;;;;;;5065414;28;20036;-57
2023/07/07 07:00:29;;;;;;;4.50;1.08;;;22.10;88.00;;;;;;5066687;28;20048;-60
2023/07/07 07:02:54;;;;;;;2.15;1.00;;;22.50;87.90;;;;;;5062213;28;20133;-60
2023/07/07 07:05:20;;;;;;;5.40;1.58;;;22.40;89.20;;;;;;5075441;28;20392;-61
2023/07/07 07:07:45;;;;;;;2.85;1.20;;;22.00;88.40;;;;;;5063335;28;20074;-57
2023/07/07 07:10:12;;;;;;;2.60;1.35;;;21.70;87.80;;;;;;5067394;28;20036;-56
2023/07/07 07:12:37;;;;;;;1.10;0.85;;;21.50;89.00;;;;;;5061800;28;20119;-59
2023/07/07 07:15:03;;;;;;;1.98;1.15;;;21.50;86.80;;;;;;5069094;28;20567;-60
2023/07/07 07:17:29;;;;;;;2.38;1.40;;;21.70;87.10;;;;;;5060916;28;20124;-57
2023/07/07 07:19:54;;;;;;;3.47;1.08;;;22.00;81.90;;;;;;5061742;28;20066;-57
2023/07/07 07:22:20;;;;;;;2.70;1.40;;;22.60;83.30;;;;;;5060515;28;20044;-62
2023/07/07 07:24:46;;;;;;;2.55;1.20;;;23.50;80.70;;;;;;5064924;28;20048;-60
2023/07/07 07:27:11;;;;;;;2.72;1.20;;;24.30;77.50;;;;;;5060554;28;20484;-60
2023/07/07 07:29:37;;;;;;;3.50;1.40;;;25.00;73.70;;;;;;5073402;28;20032;-62
2023/07/07 07:32:03;;;;;;;3.03;1.35;;;25.70;71.50;;;;;;5066561;28;20404;-61
2023/07/07 07:34:30;;;;;;;2.33;1.33;;;26.00;68.60;;;;;;5078368;28;20044;-61
2023/07/07 07:36:59;;;;;;;2.40;1.42;;;25.30;70.70;;;;;;5069022;28;20056;-55
2023/07/07 07:39:25;;;;;;;2.33;1.00;;;24.60;70.40;;;;;;5075826;28;20089;-61
2023/07/07 07:41:53;;;;;;;2.28;1.00;;;24.00;72.60;;;;;;5069985;28;20064;-58
2023/07/07 07:44:20;;;;;;;1.95;1.38;;;23.60;72.40;;;;;;5075577;28;20035;-58
2023/07/07 07:46:47;;;;;;;4.15;1.33;;;23.30;71.50;;;;;;5069368;28;20036;-59
2023/07/07 07:49:13;;;;;;;2.33;1.05;;;22.90;70.80;;;;;;5074598;28;20032;-59
2023/07/07 07:51:40;;;;;;;1.55;1.10;;;22.70;71.70;;;;;;5070539;28;20124;-60
2023/07/07 07:54:11;;;;;;;2.15;1.05;;;22.70;75.20;;;;;;5073799;28;20618;-61
2023/07/07 07:56:37;;;;;;;5.13;1.83;;;22.70;75.70;;;;;;5067440;28;20048;-58
2023/07/07 07:59:04;;;;;;;2.25;1.48;;;22.90;75.50;;;;;;5072651;28;20036;-59
2023/07/07 08:01:30;;;;;;;4.03;1.58;;;23.10;72.60;;;;;;5066065;28;20037;-57
2023/07/07 08:03:56;;;;;;;1.17;0.95;;;23.20;74.70;;;;;;5067705;28;20069;-57
2023/07/07 08:06:22;;;;;;;1.92;0.90;;;23.00;74.00;;;;;;5070758;28;20056;-58
2023/07/07 08:08:47;;;;;;;3.35;1.52;;;23.20;75.90;;;;;;5068717;28;20036;-56
2023/07/07 08:11:17;;;;;;;3.70;1.50;;;23.70;74.80;;;;;;5064564;28;20051;-59
2023/07/07 08:13:43;;;;;;;2.08;1.10;;;25.00;66.40;;;;;;5070115;28;20040;-58
2023/07/07 08:16:10;;;;;;;3.70;1.30;;;26.80;66.20;;;;;;5068532;28;20706;-59
2023/07/07 08:18:37;;;;;;;2.65;1.40;;;27.30;65.10;;;;;;5067422;28;20060;-61
2023/07/07 08:21:03;;;;;;;3.55;1.27;;;27.00;63.80;;;;;;5066772;28;20066;-51
2023/07/07 08:23:29;;;;;;;2.30;0.88;;;26.90;61.80;;;;;;5066446;28;20041;-61
2023/07/07 08:25:55;;;;;;;1.73;1.10;;;26.70;62.80;;;;;;5064942;28;20059;-61
2023/07/07 08:28:20;;;;;;;1.63;1.05;;;26.20;61.80;;;;;;5066707;28;20037;-59
2023/07/07 08:30:46;;;;;;;3.05;1.48;;;25.70;65.80;;;;;;5063791;28;20040;-56
2023/07/07 08:33:12;;;;;;;2.30;1.13;;;25.40;63.70;;;;;;5062090;28;20039;-59
2023/07/07 08:35:38;;;;;;;3.28;1.70;;;25.00;65.10;;;;;;5071909;28;20498;-60
2023/07/07 08:38:04;;;;;;;4.63;1.73;;;24.80;66.30;;;;;;5066438;28;20037;-57
2023/07/07 08:40:42;;;;;;;2.83;1.48;;;25.30;63.30;;;;;;5066155;28;20035;-58
2023/07/07 08:43:10;;;;;;;2.67;1.35;;;25.70;62.00;;;;;;5067715;28;20092;-54
2023/07/07 08:45:36;;;;;;;3.05;0.95;;;26.50;65.90;;;;;;5065708;28;20132;-55
2023/07/07 08:48:05;;;;;;;3.95;1.50;;;27.70;60.70;;;;;;5066143;28;20029;-62
2023/07/07 08:50:48;;;;;;;6.60;1.70;;;29.30;56.60;;;;;;5071306;28;20540;-58
2023/07/07 08:53:39;;;;;;;2.47;1.48;;;30.80;55.50;;;;;;5064675;28;20531;-57
2023/07/07 08:56:08;;;;;;;3.50;1.45;;;30.90;50.80;;;;;;5062632;28;20058;-58
2023/07/07 08:59:00;;;;;;;2.15;1.13;;;31.10;49.60;;;;;;5067431;28;20102;-50
2023/07/07 09:01:59;;;;;;;2.58;1.52;;;30.90;50.90;;;;;;5019452;28;20123;-59
2023/07/07 09:04:40;;;;;;;1.63;1.30;;;29.10;52.60;;;;;;5074032;28;20036;-58
2023/07/07 09:07:25;;;;;;;2.15;1.25;;;27.70;55.80;;;;;;5063329;28;20044;-56
2023/07/07 09:09:51;;;;;;;5.97;1.60;;;27.30;56.10;;;;;;5064063;28;20039;-54
2023/07/07 09:12:48;;;;;;;7.03;1.20;;;26.40;57.80;;;;;;5064161;28;20080;-58
2023/07/07 09:15:26;;;;;;;7.15;1.60;;;25.90;59.30;;;;;;5060620;28;20076;-58
2023/07/07 09:17:58;;;;;;;3.63;1.55;;;25.20;59.10;;;;;;5064229;28;20066;-51
2023/07/07 09:20:27;;;;;;;3.25;1.80;;;24.80;60.40;;;;;;5070968;28;20373;-56
2023/07/07 09:23:03;;;;;;;2.28;1.45;;;24.80;61.50;;;;;;5064851;28;20496;-60
2023/07/07 09:25:37;;;;;;;;;;;24.60;62.70;;;;;;5071935;28;20169;-60
2023/07/07 09:28:07;;;;;;;4.35;1.63;;;24.40;60.10;;;;;;5066127;28;19916;-58
2023/07/07 09:30:45;;;;;;;3.20;1.75;;;24.30;62.80;;;;;;5065477;28;20048;-60
2023/07/07 09:33:18;;;;;;;2.45;1.30;;;24.30;62.40;;;;;;5064807;28;20039;-58
2023/07/07 09:36:11;;;;;;;3.17;1.30;;;24.20;63.80;;;;;;5060363;28;20496;-53
2023/07/07 09:39:13;;;;;;;3.75;1.70;;;24.20;65.60;;;;;;5058996;28;20040;-54
2023/07/07 09:42:08;;;;;;;3.33;1.38;;;23.90;61.00;;;;;;5067360;28;20032;-55
2023/07/07 09:45:01;;;;;;;2.67;1.30;;;23.40;62.50;;;;;;5077178;28;20036;-51
2023/07/07 09:47:45;;;;;;;4.82;1.52;;;23.50;63.70;;;;;;5062874;28;20083;-59
2023/07/07 09:50:17;;;;;;;2.58;1.30;;;23.60;65.60;;;;;;5066755;28;20913;-56
2023/07/07 09:53:12;;;;;;;2.08;1.17;;;23.70;66.30;;;;;;5065992;28;20070;-58
2023/07/07 09:55:38;;;;;;;3.33;1.40;;;23.80;62.70;;;;;;5050214;28;20033;-56
2023/07/07 09:58:20;;;;;;;2.03;1.40;;;23.90;62.00;;;;;;5066273;28;20032;-56
2023/07/07 10:00:50;;;;;;;3.08;1.50;;;24.00;66.10;;;;;;5062802;28;20040;-59
2023/07/07 10:03:38;;;;;;;5.22;1.63;;;24.00;64.90;;;;;;5064045;28;20051;-61
2023/07/07 10:06:12;;;;;;;2.90;1.55;;;24.00;63.80;;;;;;5048894;28;20440;-55
2023/07/07 10:08:38;;;;;;;3.13;1.60;;;24.10;66.20;;;;;;5063146;28;20048;-57
2023/07/07 10:11:21;;;;;;;2.70;1.58;;;24.00;61.70;;;;;;5067937;28;20028;-53
2023/07/07 10:13:51;;;;;;;2.42;1.48;;;23.90;64.00;;;;;;5062365;28;20032;-57
2023/07/07 10:16:32;;;;;;;3.10;1.48;;;23.90;63.80;;;;;;5061970;28;20048;-61
2023/07/07 10:19:05;;;;;;;3.97;1.50;;;24.00;62.30;;;;;;5065277;28;20763;-55
2023/07/07 10:21:33;;;;;;;2.53;1.50;;;24.10;64.70;;;;;;5066814;28;20040;-55
2023/07/07 10:23:58;;;;;;;3.25;1.52;;;24.20;63.10;;;;;;5065191;28;20047;-58
2023/07/07 10:26:24;;;;;;;2.95;1.20;;;24.30;63.60;;;;;;5067277;28;20032;-55
2023/07/07 10:28:54;;;;;;;1.92;1.20;;;24.10;64.20;;;;;;5066262;28;20409;-60
2023/07/07 10:31:19;;;;;;;4.00;1.30;;;24.00;63.80;;;;;;5060600;28;20040;-60
2023/07/07 10:33:49;;;;;;;1.88;1.30;;;23.70;64.60;;;;;;5069230;28;20447;-55
2023/07/07 10:36:22;;;;;;;2.85;1.45;;;23.90;68.80;;;;;;5069216;28;20097;-60
2023/07/07 10:38:48;;;;;;;1.60;1.17;;;24.10;65.30;;;;;;5065883;28;20036;-56
2023/07/07 10:41:14;;;;;;;2.00;1.27;;;24.00;66.90;;;;;;5068309;28;20094;-59
2023/07/07 10:43:39;;;;;;;2.80;1.80;;;23.80;69.20;;;;;;5066144;28;20037;-57
2023/07/07 10:46:11;;;;;;;3.63;1.33;;;24.00;69.10;;;;;;5067857;28;20463;-57
2023/07/07 10:48:39;;;;;;;4.32;1.50;;;24.30;65.70;;;;;;5065286;28;20032;-56
2023/07/07 10:51:15;;;;;;;2.28;1.52;;;24.20;62.50;;;;;;5068540;28;20046;-59
2023/07/07 10:53:49;;;;;;;3.90;1.93;;;24.30;65.20;;;;;;5063648;28;20087;-58
2023/07/07 10:56:32;;;;;;;4.75;1.75;;;24.50;63.70;;;;;;5068168;28;20163;-58
2023/07/07 10:59:16;;;;;;;3.47;1.52;;;24.60;63.40;;;;;;5065293;28;20040;-60
2023/07/07 11:02:02;;;;;;;3.58;1.52;;;24.60;63.60;;;;;;5067559;28;20706;-58
2023/07/07 11:04:39;;;;;;;3.92;1.55;;;24.70;64.30;;;;;;5069571;28;20032;-60
2023/07/07 11:07:23;;;;;;;2.03;1.42;;;24.80;62.20;;;;;;5064264;28;20389;-57
2023/07/07 11:10:07;;;;;;;2.10;1.55;;;24.60;62.30;;;;;;5064732;28;20036;-58
2023/07/07 11:12:40;;;;;;;6.88;1.60;;;24.60;59.60;;;;;;5055820;28;20040;-56
2023/07/07 11:15:39;;;;;;;4.28;1.60;;;24.50;60.60;;;;;;5068723;28;20032;-49
2023/07/07 11:18:34;;;;;;;2.97;1.27;;;24.50;59.40;;;;;;5061558;28;20048;-52
2023/07/07 11:20:59;;;;;;;1.70;1.27;;;24.80;60.90;;;;;;5065845;28;20040;-59
2023/07/07 11:23:46;;;;;;;5.97;1.58;;;24.70;62.10;;;;;;5067827;28;20036;-59
2023/07/07 11:26:29;;;;;;;3.35;1.60;;;24.80;63.80;;;;;;5067479;28;20055;-59
2023/07/07 11:29:18;;;;;;;3.08;1.17;;;24.60;59.20;;;;;;5063661;28;20040;-60
2023/07/07 11:31:50;;;;;;;1.75;1.15;;;24.70;63.40;;;;;;5054722;28;20045;-58
2023/07/07 11:34:31;;;;;;;3.67;1.60;;;24.80;59.70;;;;;;5068462;28;20276;-57
2023/07/07 11:37:26;;;;;;;2.40;1.52;;;24.80;63.40;;;;;;5057327;28;20084;-59
2023/07/07 11:40:11;;;;;;;3.78;1.60;;;24.90;59.80;;;;;;5068758;28;20040;-59
2023/07/07 11:42:57;;;;;;;2.05;1.45;;;24.90;60.00;;;;;;5056823;28;20562;-57
2023/07/07 11:45:40;;;;;;;1.75;1.33;;;25.00;59.90;;;;;;5067580;28;20048;-60
2023/07/07 11:48:17;;;;;;;2.83;1.52;;;24.80;60.90;;;;;;5062443;28;20044;-58
2023/07/07 11:51:07;;;;;;;3.88;2.00;;;25.00;64.00;;;;;;5063952;28;20481;-59
2023/07/07 11:53:49;;;;;;;2.70;1.67;;;25.20;60.80;;;;;;5059780;28;20101;-59
2023/07/07 11:56:37;;;;;;;3.40;1.67;;;25.20;63.20;;;;;;5066020;28;20053;-64
2023/07/07 11:59:20;;;;;;;3.17;1.30;;;25.30;62.50;;;;;;5065389;28;20544;-57
2023/07/07 12:01:51;;;;;;;2.83;1.40;;;25.20;60.40;;;;;;5056879;28;20037;-61
2023/07/07 12:04:30;;;;;;;6.53;1.80;;;25.30;59.70;;;;;;5069670;28;20048;-59
2023/07/07 12:06:58;;;;;;;2.20;1.45;;;25.40;59.70;;;;;;5060722;28;20063;-57
2023/07/07 12:09:38;;;;;;;4.85;1.40;;;25.40;59.10;;;;;;5066995;28;20032;-55
2023/07/07 12:12:19;;;;;;;5.50;1.50;;;25.10;60.50;;;;;;5064021;28;20053;-58
2023/07/07 12:14:57;;;;;;;2.75;1.33;;;24.70;59.30;;;;;;5073357;28;20105;-53
2023/07/07 12:17:32;;;;;;;2.42;1.48;;;25.00;62.20;;;;;;5064252;28;20076;-59
2023/07/07 12:20:11;;;;;;;3.23;1.80;;;25.20;61.10;;;;;;5066003;28;20227;-59
2023/07/07 12:22:42;;;;;;;4.55;1.55;;;25.40;60.00;;;;;;5060058;28;20048;-53
2023/07/07 12:25:26;;;;;;;2.72;1.60;;;25.40;61.40;;;;;;5062658;28;20040;-57
2023/07/07 12:27:53;;;;;;;2.20;1.50;;;25.50;57.90;;;;;;5083102;28;20043;-52
2023/07/07 12:30:30;;;;;;;5.25;1.63;;;25.60;60.40;;;;;;5072261;28;20048;-54
2023/07/07 12:32:57;;;;;;;2.33;1.30;;;25.50;57.50;;;;;;5067366;28;20033;-58
2023/07/07 12:35:28;;;;;;;1.60;1.40;;;25.40;57.30;;;;;;5066085;28;20055;-58
2023/07/07 12:37:56;;;;;;;2.25;1.38;;;25.40;60.30;;;;;;5067320;28;20556;-52
2023/07/07 12:40:22;;;;;;;2.47;1.20;;;25.50;58.30;;;;;;5065718;28;20072;-59
2023/07/07 12:43:18;;;;;;;3.15;1.30;;;25.70;58.10;;;;;;5066630;28;20792;-60
2023/07/07 12:45:46;;;;;;;2.05;1.40;;;25.70;60.20;;;;;;5065056;28;20115;-53
2023/07/07 12:48:19;;;;;;;1.92;1.30;;;25.80;57.30;;;;;;5066099;28;20044;-57
2023/07/07 12:50:45;;;;;;;3.38;1.52;;;25.50;57.40;;;;;;5070511;28;20029;-57
2023/07/07 12:53:20;;;;;;;2.13;1.45;;;25.70;58.50;;;;;;5066633;28;20043;-60
2023/07/07 12:56:07;;;;;;;2.60;1.60;;;25.80;58.10;;;;;;5065065;28;20975;-60
2023/07/07 12:58:38;;;;;;;1.50;1.20;;;26.00;57.20;;;;;;5068710;28;20508;-60
2023/07/07 13:01:19;;;;;;;2.00;1.35;;;26.00;56.50;;;;;;5070419;28;20497;-57
2023/07/07 13:03:54;;;;;;;2.17;1.67;;;26.10;57.70;;;;;;5069980;28;20111;-56
2023/07/07 13:06:31;;;;;;;2.80;1.48;;;26.20;58.60;;;;;;5068840;28;20109;-56
2023/07/07 13:09:12;;;;;;;2.85;1.23;;;26.30;57.50;;;;;;5072457;28;20036;-58
2023/07/07 13:11:59;;;;;;;3.95;1.30;;;26.40;57.20;;;;;;5070554;28;20060;-54
2023/07/07 13:14:41;;;;;;;3.03;1.48;;;26.40;58.60;;;;;;5067094;28;20123;-59
2023/07/07 13:17:11;;;;;;;3.55;1.50;;;26.40;55.60;;;;;;5064023;28;20049;-59
2023/07/07 13:19:39;;;;;;;3.42;1.58;;;26.20;56.40;;;;;;5069649;28;20044;-58